Amboy, WA (98601)

4:05 AM PDT on March 27, 2017 (GMT -0700)
Yacolt | | Change Station
Active Advisory: Flood Warning

Elev 629 ft 45.89 °N, 122.43 °W | Updated 1 minute ago

Rain
Rain
43.4 °F
Feels Like 43 °F
N
2.2
Wind Variable Wind from SSE

Today
High -- | Low -- °F
--% Chance of Precip.
Yesterday
High -- | Low -- °F
Precip. -- in
Pressure 29.95 in
Visibility 10.0 miles
Clouds Scattered Clouds 2000 ft
Mostly Cloudy 2600 ft
Overcast 7000 ft
Windchill 43 °F
Dew Point 43 °F
Humidity 99%
Rainfall 0.02 in
Snow Depth Not available.
6:58 AM 7:32 PM
Waning Crescent, 1% visible
METAR KSPB 271053Z AUTO 19004KT 10SM SCT020 BKN026 OVC070 08/07 A2995 RMK AO2 RAB15E41 SLP140 P0001 T00780072
Pressure 29.95 in
Visibility 10.0 miles
Clouds Scattered Clouds 2000 ft
Mostly Cloudy 2600 ft
Overcast 7000 ft
Windchill 43 °F
Dew Point 43 °F
Humidity 99%
Rainfall 0.02 in
Snow Depth Not available.
6:58 AM 7:32 PM
Waning Crescent, 1% visible
METAR KSPB 271053Z AUTO 19004KT 10SM SCT020 BKN026 OVC070 08/07 A2995 RMK AO2 RAB15E41 SLP140 P0001 T00780072

Get Your Daily Forecast Email!

Thanks for signing up!

Be on the lookout for a verification email in your inbox.

You'll start receiving severe weather alerts in your inbox..

×

10-Day Weather Forecast

Almanac

Astronomy

Mar. 27, 2017 Rise Set
Actual Time
Civil Twilight
Nautical Twilight
Astronomical Twilight
Moon
Length of Visible Light
Length of Day
Tomorrow will be .
, % of the Moon is Illuminated

Today's Extremes

State Highs State Lows

Community

WunderPhotos

Upload Photos

1,962,540 photos uploaded!

WunderBlog® & News

Nearby

Air Quality

  Air Quality AQ Index Pollutant
Not available.

Snow Depth

Station Depth Elevation

Earthquake Activity

City Distance Mag. Time & Date
Minimum magnitude displayed is 2.5.

Earthquake Activity

City Distance Mag. Time & Date
Minimum magnitude displayed is 2.5.

Coastal Water Temperatures

Place Temperature

Stations

Nearby Weather Stations

Station Location Temp. Windchill Dew Point Humidity Wind Precip. Elev Updated Type
                   

Watches & Warnings

Flood Warning
Issued: 12:44 PM PDT Mar. 26, 2017 – National Weather Service

The Flood Warning continues for
the Columbia River at Vancouver.
* At 12 PM Sunday the stage was... 17.5 feet.
* Flood stage is 16.0 feet.
* Forecast... this river will hold fairly steady around 17.5 feet
through Wednesday, then slowly recede to 17.0 later this week.
* Impact... above 17 feet, expect flooding of some lowland access
roads, parking areas, and trails in the Portland and Vancouver
area, including Sauvie Island and Vancouver Lake. Access to some
houseboat communities may be impaired.


Lat... Lon 4555 12228 4567 12265 4576 12274 4576 12286 4556 12269